sensor_id;sensor_type;location;lat;lon;timestamp;P1;durP1;ratioP1;P2;durP2;ratioP2
51146;SDS011;37207;53.060;18.726;2022-08-03T00:00:01;7.90;;;4.60;;
51146;SDS011;37207;53.060;18.726;2022-08-03T00:03:01;9.60;;;4.70;;
51146;SDS011;37207;53.060;18.726;2022-08-03T00:05:29;8.80;;;4.60;;
51146;SDS011;37207;53.060;18.726;2022-08-03T00:07:59;7.70;;;4.30;;
51146;SDS011;37207;53.060;18.726;2022-08-03T00:10:27;6.00;;;4.30;;
51146;SDS011;37207;53.060;18.726;2022-08-03T00:12:55;5.30;;;4.80;;
51146;SDS011;37207;53.060;18.726;2022-08-03T00:15:22;7.00;;;4.90;;
51146;SDS011;37207;53.060;18.726;2022-08-03T00:17:55;5.90;;;4.30;;
51146;SDS011;37207;53.060;18.726;2022-08-03T00:20:24;8.70;;;4.00;;
51146;SDS011;37207;53.060;18.726;2022-08-03T00:22:51;6.90;;;4.10;;
51146;SDS011;37207;53.060;18.726;2022-08-03T00:25:19;6.30;;;4.80;;
51146;SDS011;37207;53.060;18.726;2022-08-03T00:27:48;6.80;;;4.50;;
51146;SDS011;37207;53.060;18.726;2022-08-03T00:30:15;7.60;;;4.60;;
51146;SDS011;37207;53.060;18.726;2022-08-03T00:32:43;6.40;;;5.00;;
51146;SDS011;37207;53.060;18.726;2022-08-03T00:35:11;5.40;;;4.40;;
51146;SDS011;37207;53.060;18.726;2022-08-03T00:40:12;7.90;;;4.10;;
51146;SDS011;37207;53.060;18.726;2022-08-03T00:42:50;9.90;;;4.20;;
51146;SDS011;37207;53.060;18.726;2022-08-03T00:45:21;6.90;;;4.50;;
51146;SDS011;37207;53.060;18.726;2022-08-03T00:47:51;6.20;;;4.40;;
51146;SDS011;37207;53.060;18.726;2022-08-03T00:50:39;8.60;;;5.40;;
51146;SDS011;37207;53.060;18.726;2022-08-03T00:53:26;6.60;;;4.90;;
51146;SDS011;37207;53.060;18.726;2022-08-03T00:55:56;5.80;;;4.70;;
51146;SDS011;37207;53.060;18.726;2022-08-03T00:58:26;9.90;;;4.80;;
51146;SDS011;37207;53.060;18.726;2022-08-03T01:00:57;9.60;;;4.40;;
51146;SDS011;37207;53.060;18.726;2022-08-03T01:03:27;7.50;;;5.30;;
51146;SDS011;37207;53.060;18.726;2022-08-03T01:06:16;9.50;;;4.90;;
51146;SDS011;37207;53.060;18.726;2022-08-03T01:13:04;6.30;;;4.30;;
51146;SDS011;37207;53.060;18.726;2022-08-03T01:16:09;10.70;;;4.90;;
51146;SDS011;37207;53.060;18.726;2022-08-03T01:18:46;13.50;;;5.20;;
51146;SDS011;37207;53.060;18.726;2022-08-03T01:21:30;5.50;;;5.00;;
51146;SDS011;37207;53.060;18.726;2022-08-03T01:24:36;6.60;;;5.10;;
51146;SDS011;37207;53.060;18.726;2022-08-03T01:27:28;4.60;;;4.10;;
51146;SDS011;37207;53.060;18.726;2022-08-03T01:30:06;7.40;;;4.10;;
51146;SDS011;37207;53.060;18.726;2022-08-03T01:32:51;6.90;;;3.60;;
51146;SDS011;37207;53.060;18.726;2022-08-03T01:35:34;10.10;;;4.70;;
51146;SDS011;37207;53.060;18.726;2022-08-03T01:38:30;5.80;;;3.80;;
51146;SDS011;37207;53.060;18.726;2022-08-03T01:41:14;4.30;;;3.60;;
51146;SDS011;37207;53.060;18.726;2022-08-03T01:43:47;6.60;;;4.00;;
51146;SDS011;37207;53.060;18.726;2022-08-03T01:46:17;14.50;;;4.00;;
51146;SDS011;37207;53.060;18.726;2022-08-03T01:48:49;9.00;;;4.10;;
51146;SDS011;37207;53.060;18.726;2022-08-03T01:51:18;14.00;;;4.50;;
51146;SDS011;37207;53.060;18.726;2022-08-03T01:56:41;4.20;;;3.80;;
51146;SDS011;37207;53.060;18.726;2022-08-03T01:59:50;6.60;;;4.00;;
51146;SDS011;37207;53.060;18.726;2022-08-03T02:02:58;6.80;;;3.20;;
51146;SDS011;37207;53.060;18.726;2022-08-03T02:05:55;3.60;;;3.30;;
51146;SDS011;37207;53.060;18.726;2022-08-03T02:09:14;5.30;;;3.80;;
51146;SDS011;37207;53.060;18.726;2022-08-03T02:11:46;5.20;;;3.60;;
51146;SDS011;37207;53.060;18.726;2022-08-03T02:14:15;5.90;;;3.50;;
51146;SDS011;37207;53.060;18.726;2022-08-03T02:16:48;7.40;;;3.40;;
51146;SDS011;37207;53.060;18.726;2022-08-03T02:19:17;13.10;;;4.10;;
51146;SDS011;37207;53.060;18.726;2022-08-03T02:21:45;5.60;;;3.60;;
51146;SDS011;37207;53.060;18.726;2022-08-03T02:24:19;7.20;;;3.60;;
51146;SDS011;37207;53.060;18.726;2022-08-03T02:29:21;11.30;;;3.70;;
51146;SDS011;37207;53.060;18.726;2022-08-03T02:31:52;7.50;;;3.90;;
51146;SDS011;37207;53.060;18.726;2022-08-03T02:34:23;7.60;;;4.00;;
51146;SDS011;37207;53.060;18.726;2022-08-03T02:36:57;4.50;;;4.00;;
51146;SDS011;37207;53.060;18.726;2022-08-03T02:42:41;11.70;;;4.20;;
51146;SDS011;37207;53.060;18.726;2022-08-03T02:45:35;12.20;;;4.50;;
51146;SDS011;37207;53.060;18.726;2022-08-03T02:48:46;7.40;;;4.00;;
51146;SDS011;37207;53.060;18.726;2022-08-03T02:51:40;6.40;;;3.90;;
51146;SDS011;37207;53.060;18.726;2022-08-03T02:54:32;5.90;;;4.80;;
51146;SDS011;37207;53.060;18.726;2022-08-03T02:57:31;8.30;;;4.10;;
51146;SDS011;37207;53.060;18.726;2022-08-03T03:00:01;7.80;;;4.40;;
51146;SDS011;37207;53.060;18.726;2022-08-03T03:02:56;7.30;;;4.20;;
51146;SDS011;37207;53.060;18.726;2022-08-03T03:05:51;7.60;;;4.30;;
51146;SDS011;37207;53.060;18.726;2022-08-03T03:08:20;4.60;;;4.20;;
51146;SDS011;37207;53.060;18.726;2022-08-03T03:10:48;5.00;;;4.30;;
51146;SDS011;37207;53.060;18.726;2022-08-03T03:13:17;6.80;;;4.80;;
51146;SDS011;37207;53.060;18.726;2022-08-03T03:15:51;4.90;;;4.50;;
51146;SDS011;37207;53.060;18.726;2022-08-03T03:18:23;7.20;;;4.70;;
51146;SDS011;37207;53.060;18.726;2022-08-03T03:20:54;13.70;;;4.10;;
51146;SDS011;37207;53.060;18.726;2022-08-03T03:23:29;6.00;;;4.40;;
51146;SDS011;37207;53.060;18.726;2022-08-03T03:26:00;7.30;;;4.20;;
51146;SDS011;37207;53.060;18.726;2022-08-03T03:28:46;5.50;;;4.20;;
51146;SDS011;37207;53.060;18.726;2022-08-03T03:31:17;6.20;;;5.00;;
51146;SDS011;37207;53.060;18.726;2022-08-03T03:33:48;4.40;;;4.00;;
51146;SDS011;37207;53.060;18.726;2022-08-03T03:36:46;4.30;;;4.00;;
51146;SDS011;37207;53.060;18.726;2022-08-03T03:39:13;7.00;;;4.30;;
51146;SDS011;37207;53.060;18.726;2022-08-03T03:41:41;8.20;;;5.00;;
51146;SDS011;37207;53.060;18.726;2022-08-03T03:44:14;7.20;;;4.20;;
51146;SDS011;37207;53.060;18.726;2022-08-03T03:46:42;7.10;;;4.60;;
51146;SDS011;37207;53.060;18.726;2022-08-03T03:49:12;11.00;;;5.00;;
51146;SDS011;37207;53.060;18.726;2022-08-03T03:51:40;7.70;;;5.10;;
51146;SDS011;37207;53.060;18.726;2022-08-03T03:54:08;12.40;;;4.30;;
51146;SDS011;37207;53.060;18.726;2022-08-03T03:56:36;6.10;;;4.50;;
51146;SDS011;37207;53.060;18.726;2022-08-03T04:01:31;7.00;;;4.40;;
51146;SDS011;37207;53.060;18.726;2022-08-03T04:03:59;7.00;;;4.70;;
51146;SDS011;37207;53.060;18.726;2022-08-03T04:06:47;6.70;;;4.40;;
51146;SDS011;37207;53.060;18.726;2022-08-03T04:09:35;5.20;;;4.50;;
51146;SDS011;37207;53.060;18.726;2022-08-03T04:12:28;9.40;;;4.80;;
51146;SDS011;37207;53.060;18.726;2022-08-03T04:15:08;8.10;;;4.40;;
51146;SDS011;37207;53.060;18.726;2022-08-03T04:17:39;7.70;;;4.60;;
51146;SDS011;37207;53.060;18.726;2022-08-03T04:20:10;5.50;;;4.30;;
51146;SDS011;37207;53.060;18.726;2022-08-03T04:22:40;6.90;;;4.50;;
51146;SDS011;37207;53.060;18.726;2022-08-03T04:25:50;4.70;;;4.30;;
51146;SDS011;37207;53.060;18.726;2022-08-03T04:28:42;8.30;;;4.70;;
51146;SDS011;37207;53.060;18.726;2022-08-03T04:31:16;8.90;;;4.70;;
51146;SDS011;37207;53.060;18.726;2022-08-03T04:34:10;8.50;;;4.70;;
51146;SDS011;37207;53.060;18.726;2022-08-03T04:36:39;7.80;;;4.70;;
51146;SDS011;37207;53.060;18.726;2022-08-03T04:39:24;5.60;;;4.40;;
51146;SDS011;37207;53.060;18.726;2022-08-03T04:42:02;13.40;;;4.60;;
51146;SDS011;37207;53.060;18.726;2022-08-03T04:44:34;6.40;;;5.00;;
51146;SDS011;37207;53.060;18.726;2022-08-03T04:47:08;6.90;;;4.10;;
51146;SDS011;37207;53.060;18.726;2022-08-03T04:49:56;10.50;;;4.00;;
51146;SDS011;37207;53.060;18.726;2022-08-03T04:53:04;5.80;;;4.40;;
51146;SDS011;37207;53.060;18.726;2022-08-03T04:55:38;6.10;;;4.40;;
51146;SDS011;37207;53.060;18.726;2022-08-03T04:58:06;7.40;;;4.30;;
51146;SDS011;37207;53.060;18.726;2022-08-03T05:00:34;4.80;;;4.10;;
51146;SDS011;37207;53.060;18.726;2022-08-03T05:03:02;9.50;;;4.10;;
51146;SDS011;37207;53.060;18.726;2022-08-03T05:05:29;6.10;;;4.60;;
51146;SDS011;37207;53.060;18.726;2022-08-03T05:07:59;9.00;;;5.10;;
51146;SDS011;37207;53.060;18.726;2022-08-03T05:10:29;11.50;;;4.50;;
51146;SDS011;37207;53.060;18.726;2022-08-03T05:13:02;8.10;;;4.40;;
51146;SDS011;37207;53.060;18.726;2022-08-03T05:15:30;21.10;;;5.00;;
51146;SDS011;37207;53.060;18.726;2022-08-03T05:18:25;11.30;;;4.50;;
51146;SDS011;37207;53.060;18.726;2022-08-03T05:20:58;5.90;;;4.30;;
51146;SDS011;37207;53.060;18.726;2022-08-03T05:23:36;15.10;;;4.50;;
51146;SDS011;37207;53.060;18.726;2022-08-03T05:26:05;8.00;;;4.10;;
51146;SDS011;37207;53.060;18.726;2022-08-03T05:28:34;6.80;;;3.90;;
51146;SDS011;37207;53.060;18.726;2022-08-03T05:31:01;10.70;;;4.20;;
51146;SDS011;37207;53.060;18.726;2022-08-03T05:36:00;4.80;;;3.60;;
51146;SDS011;37207;53.060;18.726;2022-08-03T05:38:27;10.80;;;3.80;;
51146;SDS011;37207;53.060;18.726;2022-08-03T05:40:55;4.40;;;3.70;;
51146;SDS011;37207;53.060;18.726;2022-08-03T05:43:23;5.00;;;3.50;;
51146;SDS011;37207;53.060;18.726;2022-08-03T05:45:51;10.60;;;4.20;;
51146;SDS011;37207;53.060;18.726;2022-08-03T05:48:18;9.90;;;4.10;;
51146;SDS011;37207;53.060;18.726;2022-08-03T05:50:46;8.50;;;3.70;;
51146;SDS011;37207;53.060;18.726;2022-08-03T05:53:14;5.60;;;3.40;;
51146;SDS011;37207;53.060;18.726;2022-08-03T05:55:42;7.60;;;3.70;;
51146;SDS011;37207;53.060;18.726;2022-08-03T05:58:10;15.60;;;3.60;;
51146;SDS011;37207;53.060;18.726;2022-08-03T06:00:38;3.40;;;3.00;;
51146;SDS011;37207;53.060;18.726;2022-08-03T06:03:05;5.70;;;3.50;;
51146;SDS011;37207;53.060;18.726;2022-08-03T06:05:33;4.70;;;3.10;;
51146;SDS011;37207;53.060;18.726;2022-08-03T06:08:06;4.10;;;3.70;;
51146;SDS011;37207;53.060;18.726;2022-08-03T06:10:34;8.00;;;3.50;;
51146;SDS011;37207;53.060;18.726;2022-08-03T06:13:01;4.60;;;3.50;;
51146;SDS011;37207;53.060;18.726;2022-08-03T06:15:29;4.40;;;3.40;;
51146;SDS011;37207;53.060;18.726;2022-08-03T06:17:59;10.10;;;3.50;;
51146;SDS011;37207;53.060;18.726;2022-08-03T06:20:28;8.80;;;3.70;;
51146;SDS011;37207;53.060;18.726;2022-08-03T06:22:56;7.90;;;3.30;;
51146;SDS011;37207;53.060;18.726;2022-08-03T06:25:23;5.60;;;2.60;;
51146;SDS011;37207;53.060;18.726;2022-08-03T06:27:51;3.90;;;2.80;;
51146;SDS011;37207;53.060;18.726;2022-08-03T06:30:18;6.30;;;2.60;;
51146;SDS011;37207;53.060;18.726;2022-08-03T06:32:46;6.00;;;2.70;;
51146;SDS011;37207;53.060;18.726;2022-08-03T06:35:13;6.90;;;2.80;;
51146;SDS011;37207;53.060;18.726;2022-08-03T06:37:40;7.80;;;2.80;;
51146;SDS011;37207;53.060;18.726;2022-08-03T06:40:12;5.40;;;3.10;;
51146;SDS011;37207;53.060;18.726;2022-08-03T06:42:40;7.20;;;2.80;;
51146;SDS011;37207;53.060;18.726;2022-08-03T06:45:09;3.40;;;3.00;;
51146;SDS011;37207;53.060;18.726;2022-08-03T06:50:06;8.90;;;3.20;;
51146;SDS011;37207;53.060;18.726;2022-08-03T06:52:35;10.20;;;3.40;;
51146;SDS011;37207;53.060;18.726;2022-08-03T06:55:03;7.90;;;3.50;;
51146;SDS011;37207;53.060;18.726;2022-08-03T06:59:58;3.00;;;2.60;;
51146;SDS011;37207;53.060;18.726;2022-08-03T07:02:27;10.20;;;2.70;;
51146;SDS011;37207;53.060;18.726;2022-08-03T07:04:57;6.20;;;3.00;;
51146;SDS011;37207;53.060;18.726;2022-08-03T07:07:24;6.30;;;3.00;;
51146;SDS011;37207;53.060;18.726;2022-08-03T07:09:52;9.80;;;3.00;;
51146;SDS011;37207;53.060;18.726;2022-08-03T07:12:19;3.20;;;2.40;;
51146;SDS011;37207;53.060;18.726;2022-08-03T07:14:46;9.40;;;8.40;;
51146;SDS011;37207;53.060;18.726;2022-08-03T07:17:13;3.30;;;3.00;;
51146;SDS011;37207;53.060;18.726;2022-08-03T07:19:40;6.30;;;3.40;;
51146;SDS011;37207;53.060;18.726;2022-08-03T07:22:08;2.30;;;2.10;;
51146;SDS011;37207;53.060;18.726;2022-08-03T07:24:35;3.90;;;2.10;;
51146;SDS011;37207;53.060;18.726;2022-08-03T07:27:02;5.00;;;2.30;;
51146;SDS011;37207;53.060;18.726;2022-08-03T07:29:29;5.10;;;3.40;;
51146;SDS011;37207;53.060;18.726;2022-08-03T07:31:57;2.90;;;2.40;;
51146;SDS011;37207;53.060;18.726;2022-08-03T07:34:24;5.10;;;2.30;;
51146;SDS011;37207;53.060;18.726;2022-08-03T07:36:51;6.50;;;2.10;;
51146;SDS011;37207;53.060;18.726;2022-08-03T07:39:19;2.20;;;1.90;;
51146;SDS011;37207;53.060;18.726;2022-08-03T07:41:46;6.00;;;2.70;;
51146;SDS011;37207;53.060;18.726;2022-08-03T07:44:16;7.60;;;2.10;;
51146;SDS011;37207;53.060;18.726;2022-08-03T07:46:44;6.20;;;2.10;;
51146;SDS011;37207;53.060;18.726;2022-08-03T07:49:11;4.40;;;1.80;;
51146;SDS011;37207;53.060;18.726;2022-08-03T07:51:39;4.30;;;2.10;;
51146;SDS011;37207;53.060;18.726;2022-08-03T07:54:06;7.20;;;2.70;;
51146;SDS011;37207;53.060;18.726;2022-08-03T07:56:36;9.00;;;8.10;;
51146;SDS011;37207;53.060;18.726;2022-08-03T07:59:03;3.00;;;2.20;;
51146;SDS011;37207;53.060;18.726;2022-08-03T08:01:30;8.20;;;2.70;;
51146;SDS011;37207;53.060;18.726;2022-08-03T08:04:01;3.60;;;1.70;;
51146;SDS011;37207;53.060;18.726;2022-08-03T08:06:28;3.50;;;2.10;;
51146;SDS011;37207;53.060;18.726;2022-08-03T08:08:57;3.20;;;2.60;;
51146;SDS011;37207;53.060;18.726;2022-08-03T08:11:27;8.60;;;2.30;;
51146;SDS011;37207;53.060;18.726;2022-08-03T08:13:54;17.90;;;13.00;;
51146;SDS011;37207;53.060;18.726;2022-08-03T08:16:22;5.00;;;4.50;;
51146;SDS011;37207;53.060;18.726;2022-08-03T08:18:51;105.80;;;22.80;;
51146;SDS011;37207;53.060;18.726;2022-08-03T08:21:18;36.20;;;11.10;;
51146;SDS011;37207;53.060;18.726;2022-08-03T08:23:45;11.90;;;2.30;;
51146;SDS011;37207;53.060;18.726;2022-08-03T08:26:12;2.70;;;1.70;;
51146;SDS011;37207;53.060;18.726;2022-08-03T08:28:42;3.30;;;2.20;;
51146;SDS011;37207;53.060;18.726;2022-08-03T08:31:09;8.90;;;2.00;;
51146;SDS011;37207;53.060;18.726;2022-08-03T08:33:39;7.70;;;1.90;;
51146;SDS011;37207;53.060;18.726;2022-08-03T08:36:10;3.30;;;1.50;;
51146;SDS011;37207;53.060;18.726;2022-08-03T08:38:41;6.70;;;2.00;;
51146;SDS011;37207;53.060;18.726;2022-08-03T08:41:10;7.40;;;1.50;;
51146;SDS011;37207;53.060;18.726;2022-08-03T08:43:39;3.00;;;1.60;;
51146;SDS011;37207;53.060;18.726;2022-08-03T08:48:39;3.60;;;1.40;;
51146;SDS011;37207;53.060;18.726;2022-08-03T08:51:08;2.10;;;1.30;;
51146;SDS011;37207;53.060;18.726;2022-08-03T08:53:42;6.30;;;2.20;;
51146;SDS011;37207;53.060;18.726;2022-08-03T08:56:13;6.40;;;1.30;;
51146;SDS011;37207;53.060;18.726;2022-08-03T08:58:46;8.50;;;1.10;;
51146;SDS011;37207;53.060;18.726;2022-08-03T09:01:18;10.10;;;2.70;;
51146;SDS011;37207;53.060;18.726;2022-08-03T09:03:46;1.90;;;0.90;;
51146;SDS011;37207;53.060;18.726;2022-08-03T09:06:14;4.50;;;1.60;;
51146;SDS011;37207;53.060;18.726;2022-08-03T09:08:42;2.80;;;1.20;;
51146;SDS011;37207;53.060;18.726;2022-08-03T09:11:10;4.00;;;1.90;;
51146;SDS011;37207;53.060;18.726;2022-08-03T09:13:39;3.50;;;1.50;;
51146;SDS011;37207;53.060;18.726;2022-08-03T09:18:44;4.10;;;1.40;;
51146;SDS011;37207;53.060;18.726;2022-08-03T09:21:14;3.30;;;1.30;;
51146;SDS011;37207;53.060;18.726;2022-08-03T09:23:44;2.70;;;1.40;;
51146;SDS011;37207;53.060;18.726;2022-08-03T09:26:19;24.40;;;2.60;;
51146;SDS011;37207;53.060;18.726;2022-08-03T09:28:59;2.60;;;1.30;;
51146;SDS011;37207;53.060;18.726;2022-08-03T09:34:04;5.40;;;1.50;;
51146;SDS011;37207;53.060;18.726;2022-08-03T09:36:42;6.80;;;1.00;;
51146;SDS011;37207;53.060;18.726;2022-08-03T09:39:16;3.20;;;1.30;;
51146;SDS011;37207;53.060;18.726;2022-08-03T09:41:46;2.50;;;1.00;;
51146;SDS011;37207;53.060;18.726;2022-08-03T09:44:33;2.20;;;1.40;;
51146;SDS011;37207;53.060;18.726;2022-08-03T09:47:02;4.00;;;1.70;;
51146;SDS011;37207;53.060;18.726;2022-08-03T09:49:31;5.60;;;1.40;;
51146;SDS011;37207;53.060;18.726;2022-08-03T09:52:00;2.90;;;1.10;;
51146;SDS011;37207;53.060;18.726;2022-08-03T09:54:37;4.00;;;1.00;;
51146;SDS011;37207;53.060;18.726;2022-08-03T09:57:05;1.30;;;0.90;;
51146;SDS011;37207;53.060;18.726;2022-08-03T09:59:32;5.80;;;1.30;;
51146;SDS011;37207;53.060;18.726;2022-08-03T10:02:00;1.50;;;1.00;;
51146;SDS011;37207;53.060;18.726;2022-08-03T10:04:27;3.50;;;1.20;;
51146;SDS011;37207;53.060;18.726;2022-08-03T10:07:08;4.40;;;0.90;;
51146;SDS011;37207;53.060;18.726;2022-08-03T10:09:37;2.80;;;1.20;;
51146;SDS011;37207;53.060;18.726;2022-08-03T10:12:08;10.10;;;1.10;;
51146;SDS011;37207;53.060;18.726;2022-08-03T10:14:39;1.20;;;0.70;;
51146;SDS011;37207;53.060;18.726;2022-08-03T10:17:11;1.50;;;1.10;;
51146;SDS011;37207;53.060;18.726;2022-08-03T10:19:39;3.40;;;1.00;;
51146;SDS011;37207;53.060;18.726;2022-08-03T10:22:12;2.00;;;0.80;;
51146;SDS011;37207;53.060;18.726;2022-08-03T10:27:23;2.90;;;1.00;;
51146;SDS011;37207;53.060;18.726;2022-08-03T10:29:54;2.70;;;0.90;;
51146;SDS011;37207;53.060;18.726;2022-08-03T10:35:20;2.60;;;1.10;;
51146;SDS011;37207;53.060;18.726;2022-08-03T10:37:59;54.00;;;3.00;;
51146;SDS011;37207;53.060;18.726;2022-08-03T10:40:33;2.60;;;1.40;;
51146;SDS011;37207;53.060;18.726;2022-08-03T10:43:06;3.90;;;1.10;;
51146;SDS011;37207;53.060;18.726;2022-08-03T10:45:39;1.30;;;1.00;;
51146;SDS011;37207;53.060;18.726;2022-08-03T10:48:09;1.80;;;1.00;;
51146;SDS011;37207;53.060;18.726;2022-08-03T10:50:36;1.90;;;1.00;;
51146;SDS011;37207;53.060;18.726;2022-08-03T10:53:06;3.20;;;1.10;;
51146;SDS011;37207;53.060;18.726;2022-08-03T11:01:04;2.50;;;1.40;;
51146;SDS011;37207;53.060;18.726;2022-08-03T11:06:21;3.70;;;0.90;;
51146;SDS011;37207;53.060;18.726;2022-08-03T11:11:36;2.10;;;0.90;;
51146;SDS011;37207;53.060;18.726;2022-08-03T11:14:05;2.10;;;1.30;;
51146;SDS011;37207;53.060;18.726;2022-08-03T11:19:09;1.00;;;0.90;;
51146;SDS011;37207;53.060;18.726;2022-08-03T11:27:16;2.90;;;0.90;;
51146;SDS011;37207;53.060;18.726;2022-08-03T11:29:57;1.50;;;1.00;;
51146;SDS011;37207;53.060;18.726;2022-08-03T11:35:12;5.10;;;0.80;;
51146;SDS011;37207;53.060;18.726;2022-08-03T11:40:33;4.30;;;1.30;;
51146;SDS011;37207;53.060;18.726;2022-08-03T11:43:08;2.70;;;1.00;;
51146;SDS011;37207;53.060;18.726;2022-08-03T11:48:38;1.80;;;1.00;;
51146;SDS011;37207;53.060;18.726;2022-08-03T11:56:41;5.00;;;0.80;;
51146;SDS011;37207;53.060;18.726;2022-08-03T11:59:13;1.70;;;1.00;;
51146;SDS011;37207;53.060;18.726;2022-08-03T12:01:43;4.60;;;1.00;;
51146;SDS011;37207;53.060;18.726;2022-08-03T12:04:16;3.90;;;0.90;;
51146;SDS011;37207;53.060;18.726;2022-08-03T12:06:59;2.00;;;1.00;;
51146;SDS011;37207;53.060;18.726;2022-08-03T12:09:27;3.80;;;1.00;;
51146;SDS011;37207;53.060;18.726;2022-08-03T12:11:54;5.40;;;1.10;;
51146;SDS011;37207;53.060;18.726;2022-08-03T12:14:22;5.90;;;1.00;;
51146;SDS011;37207;53.060;18.726;2022-08-03T12:16:49;2.20;;;1.00;;
51146;SDS011;37207;53.060;18.726;2022-08-03T12:19:18;4.80;;;0.90;;
51146;SDS011;37207;53.060;18.726;2022-08-03T12:21:46;4.80;;;1.10;;
51146;SDS011;37207;53.060;18.726;2022-08-03T12:24:15;4.80;;;0.80;;
51146;SDS011;37207;53.060;18.726;2022-08-03T12:29:17;3.40;;;0.90;;
51146;SDS011;37207;53.060;18.726;2022-08-03T12:31:45;1.10;;;0.90;;
51146;SDS011;37207;53.060;18.726;2022-08-03T12:34:13;1.50;;;0.80;;
51146;SDS011;37207;53.060;18.726;2022-08-03T12:36:51;2.10;;;1.10;;
51146;SDS011;37207;53.060;18.726;2022-08-03T12:39:22;9.00;;;1.10;;
51146;SDS011;37207;53.060;18.726;2022-08-03T12:41:51;4.60;;;1.00;;
51146;SDS011;37207;53.060;18.726;2022-08-03T12:44:28;3.40;;;0.90;;
51146;SDS011;37207;53.060;18.726;2022-08-03T12:46:57;5.60;;;1.00;;
51146;SDS011;37207;53.060;18.726;2022-08-03T12:49:25;6.20;;;1.20;;
51146;SDS011;37207;53.060;18.726;2022-08-03T12:51:57;4.30;;;1.00;;
51146;SDS011;37207;53.060;18.726;2022-08-03T12:54:26;3.50;;;1.30;;
51146;SDS011;37207;53.060;18.726;2022-08-03T12:57:03;7.80;;;1.40;;
51146;SDS011;37207;53.060;18.726;2022-08-03T12:59:44;1.50;;;0.80;;
51146;SDS011;37207;53.060;18.726;2022-08-03T13:02:14;6.10;;;1.20;;
51146;SDS011;37207;53.060;18.726;2022-08-03T13:04:43;2.40;;;1.30;;
51146;SDS011;37207;53.060;18.726;2022-08-03T13:07:14;2.30;;;1.10;;
51146;SDS011;37207;53.060;18.726;2022-08-03T13:09:45;4.70;;;1.10;;
51146;SDS011;37207;53.060;18.726;2022-08-03T13:12:18;2.10;;;1.00;;
51146;SDS011;37207;53.060;18.726;2022-08-03T13:14:48;4.50;;;0.90;;
51146;SDS011;37207;53.060;18.726;2022-08-03T13:17:20;2.40;;;1.00;;
51146;SDS011;37207;53.060;18.726;2022-08-03T13:22:22;5.60;;;1.60;;
51146;SDS011;37207;53.060;18.726;2022-08-03T13:24:52;4.70;;;1.20;;
51146;SDS011;37207;53.060;18.726;2022-08-03T13:27:23;1.80;;;1.00;;
51146;SDS011;37207;53.060;18.726;2022-08-03T13:29:51;2.20;;;1.30;;
51146;SDS011;37207;53.060;18.726;2022-08-03T13:32:19;3.60;;;0.80;;
51146;SDS011;37207;53.060;18.726;2022-08-03T13:34:47;1.40;;;0.70;;
51146;SDS011;37207;53.060;18.726;2022-08-03T13:37:14;2.90;;;1.00;;
51146;SDS011;37207;53.060;18.726;2022-08-03T13:39:41;4.40;;;0.90;;
51146;SDS011;37207;53.060;18.726;2022-08-03T13:42:08;1.60;;;1.00;;
51146;SDS011;37207;53.060;18.726;2022-08-03T13:44:36;2.10;;;1.10;;
51146;SDS011;37207;53.060;18.726;2022-08-03T13:47:03;1.80;;;1.00;;
51146;SDS011;37207;53.060;18.726;2022-08-03T13:49:30;1.90;;;1.20;;
51146;SDS011;37207;53.060;18.726;2022-08-03T13:51:57;3.60;;;1.10;;
51146;SDS011;37207;53.060;18.726;2022-08-03T13:54:28;2.50;;;1.30;;
51146;SDS011;37207;53.060;18.726;2022-08-03T13:56:56;1.20;;;1.10;;
51146;SDS011;37207;53.060;18.726;2022-08-03T13:59:23;1.30;;;1.20;;
51146;SDS011;37207;53.060;18.726;2022-08-03T14:01:52;2.70;;;1.30;;
51146;SDS011;37207;53.060;18.726;2022-08-03T14:04:19;1.80;;;1.20;;
51146;SDS011;37207;53.060;18.726;2022-08-03T14:06:47;1.30;;;1.10;;
51146;SDS011;37207;53.060;18.726;2022-08-03T14:09:14;3.70;;;1.10;;
51146;SDS011;37207;53.060;18.726;2022-08-03T14:11:45;1.40;;;1.00;;
51146;SDS011;37207;53.060;18.726;2022-08-03T14:14:12;3.10;;;1.20;;
51146;SDS011;37207;53.060;18.726;2022-08-03T14:16:39;4.20;;;1.20;;
51146;SDS011;37207;53.060;18.726;2022-08-03T14:19:06;7.10;;;1.30;;
51146;SDS011;37207;53.060;18.726;2022-08-03T14:21:34;5.30;;;1.50;;
51146;SDS011;37207;53.060;18.726;2022-08-03T14:24:01;4.90;;;1.10;;
51146;SDS011;37207;53.060;18.726;2022-08-03T14:26:31;1.00;;;0.90;;
51146;SDS011;37207;53.060;18.726;2022-08-03T14:28:58;2.20;;;1.00;;
51146;SDS011;37207;53.060;18.726;2022-08-03T14:31:26;3.00;;;0.90;;
51146;SDS011;37207;53.060;18.726;2022-08-03T14:33:53;8.10;;;2.00;;
51146;SDS011;37207;53.060;18.726;2022-08-03T14:36:21;3.40;;;0.90;;
51146;SDS011;37207;53.060;18.726;2022-08-03T14:38:48;2.00;;;0.70;;
51146;SDS011;37207;53.060;18.726;2022-08-03T14:41:15;3.90;;;1.20;;
51146;SDS011;37207;53.060;18.726;2022-08-03T14:43:42;2.40;;;1.20;;
51146;SDS011;37207;53.060;18.726;2022-08-03T14:46:09;1.00;;;0.90;;
51146;SDS011;37207;53.060;18.726;2022-08-03T14:48:37;4.20;;;0.90;;
51146;SDS011;37207;53.060;18.726;2022-08-03T14:53:33;1.40;;;0.80;;
51146;SDS011;37207;53.060;18.726;2022-08-03T14:56:00;4.80;;;0.80;;
51146;SDS011;37207;53.060;18.726;2022-08-03T14:58:27;3.70;;;1.30;;
51146;SDS011;37207;53.060;18.726;2022-08-03T15:00:55;6.00;;;1.10;;
51146;SDS011;37207;53.060;18.726;2022-08-03T15:03:22;2.50;;;1.40;;
51146;SDS011;37207;53.060;18.726;2022-08-03T15:05:51;2.40;;;0.90;;
51146;SDS011;37207;53.060;18.726;2022-08-03T15:08:23;5.70;;;1.40;;
51146;SDS011;37207;53.060;18.726;2022-08-03T15:10:52;1.50;;;1.00;;
51146;SDS011;37207;53.060;18.726;2022-08-03T15:13:20;3.80;;;1.20;;
51146;SDS011;37207;53.060;18.726;2022-08-03T15:15:48;3.10;;;1.20;;
51146;SDS011;37207;53.060;18.726;2022-08-03T15:18:15;8.50;;;1.10;;
51146;SDS011;37207;53.060;18.726;2022-08-03T15:20:43;4.80;;;1.00;;
51146;SDS011;37207;53.060;18.726;2022-08-03T15:23:11;3.00;;;1.00;;
51146;SDS011;37207;53.060;18.726;2022-08-03T15:25:49;1.70;;;1.00;;
51146;SDS011;37207;53.060;18.726;2022-08-03T15:28:17;4.20;;;1.20;;
51146;SDS011;37207;53.060;18.726;2022-08-03T15:30:45;5.00;;;0.90;;
51146;SDS011;37207;53.060;18.726;2022-08-03T15:33:13;1.90;;;1.00;;
51146;SDS011;37207;53.060;18.726;2022-08-03T15:35:40;2.60;;;1.00;;
51146;SDS011;37207;53.060;18.726;2022-08-03T15:38:07;1.60;;;0.90;;
51146;SDS011;37207;53.060;18.726;2022-08-03T15:40:34;3.30;;;1.00;;
51146;SDS011;37207;53.060;18.726;2022-08-03T15:43:04;2.90;;;1.20;;
51146;SDS011;37207;53.060;18.726;2022-08-03T15:48:34;4.00;;;1.10;;
51146;SDS011;37207;53.060;18.726;2022-08-03T15:51:09;5.40;;;1.00;;
51146;SDS011;37207;53.060;18.726;2022-08-03T15:56:37;6.80;;;1.00;;
51146;SDS011;37207;53.060;18.726;2022-08-03T15:59:11;6.10;;;1.00;;
51146;SDS011;37207;53.060;18.726;2022-08-03T16:01:41;6.60;;;1.10;;
51146;SDS011;37207;53.060;18.726;2022-08-03T16:04:10;1.10;;;1.00;;
51146;SDS011;37207;53.060;18.726;2022-08-03T16:06:38;2.40;;;0.90;;
51146;SDS011;37207;53.060;18.726;2022-08-03T16:09:09;2.90;;;0.90;;
51146;SDS011;37207;53.060;18.726;2022-08-03T16:11:37;6.80;;;1.20;;
51146;SDS011;37207;53.060;18.726;2022-08-03T16:14:05;1.10;;;1.00;;
51146;SDS011;37207;53.060;18.726;2022-08-03T16:16:32;4.30;;;0.90;;
51146;SDS011;37207;53.060;18.726;2022-08-03T16:19:00;4.80;;;1.30;;
51146;SDS011;37207;53.060;18.726;2022-08-03T16:21:28;12.00;;;1.30;;
51146;SDS011;37207;53.060;18.726;2022-08-03T16:23:56;6.50;;;1.10;;
51146;SDS011;37207;53.060;18.726;2022-08-03T16:26:23;1.50;;;1.30;;